sensor_id;sensor_type;location;lat;lon;timestamp;temperature;humidity
13794;DHT22;31160;49.500;7.772;2023-06-14T00:01:15;14.40;92.10
13794;DHT22;31160;49.500;7.772;2023-06-14T00:03:42;14.50;92.20
13794;DHT22;31160;49.500;7.772;2023-06-14T00:06:09;14.50;92.50
13794;DHT22;31160;49.500;7.772;2023-06-14T00:08:36;14.40;92.90
13794;DHT22;31160;49.500;7.772;2023-06-14T00:11:03;14.40;93.20
13794;DHT22;31160;49.500;7.772;2023-06-14T00:13:30;14.40;93.30
13794;DHT22;31160;49.500;7.772;2023-06-14T00:15:57;14.30;93.50
13794;DHT22;31160;49.500;7.772;2023-06-14T00:18:23;14.30;93.70
13794;DHT22;31160;49.500;7.772;2023-06-14T00:20:50;14.20;93.80
13794;DHT22;31160;49.500;7.772;2023-06-14T00:23:20;14.30;93.70
13794;DHT22;31160;49.500;7.772;2023-06-14T00:25:47;14.20;93.80
13794;DHT22;31160;49.500;7.772;2023-06-14T00:28:15;14.20;93.70
13794;DHT22;31160;49.500;7.772;2023-06-14T00:30:43;14.20;93.80
13794;DHT22;31160;49.500;7.772;2023-06-14T00:33:13;14.20;93.60
13794;DHT22;31160;49.500;7.772;2023-06-14T00:35:42;14.10;94.10
13794;DHT22;31160;49.500;7.772;2023-06-14T00:38:09;14.10;94.20
13794;DHT22;31160;49.500;7.772;2023-06-14T00:40:36;14.10;94.20
13794;DHT22;31160;49.500;7.772;2023-06-14T00:43:03;14.10;94.30
13794;DHT22;31160;49.500;7.772;2023-06-14T00:45:30;14.10;94.40
13794;DHT22;31160;49.500;7.772;2023-06-14T00:47:58;14.10;94.60
13794;DHT22;31160;49.500;7.772;2023-06-14T00:50:25;14.10;94.60
13794;DHT22;31160;49.500;7.772;2023-06-14T00:52:52;14.00;94.50
13794;DHT22;31160;49.500;7.772;2023-06-14T00:55:19;14.00;94.60
13794;DHT22;31160;49.500;7.772;2023-06-14T00:57:48;14.00;94.50
13794;DHT22;31160;49.500;7.772;2023-06-14T01:00:16;14.00;94.50
13794;DHT22;31160;49.500;7.772;2023-06-14T01:02:43;13.80;94.90
13794;DHT22;31160;49.500;7.772;2023-06-14T01:05:10;13.90;94.70
13794;DHT22;31160;49.500;7.772;2023-06-14T01:08:01;13.80;95.10
13794;DHT22;31160;49.500;7.772;2023-06-14T01:10:40;13.80;95.40
13794;DHT22;31160;49.500;7.772;2023-06-14T01:13:21;13.80;95.50
13794;DHT22;31160;49.500;7.772;2023-06-14T01:15:51;13.70;95.80
13794;DHT22;31160;49.500;7.772;2023-06-14T01:18:18;13.70;96.00
13794;DHT22;31160;49.500;7.772;2023-06-14T01:20:46;13.60;96.20
13794;DHT22;31160;49.500;7.772;2023-06-14T01:23:17;13.60;96.40
13794;DHT22;31160;49.500;7.772;2023-06-14T01:25:44;13.60;96.60
13794;DHT22;31160;49.500;7.772;2023-06-14T01:28:12;13.50;96.80
13794;DHT22;31160;49.500;7.772;2023-06-14T01:30:41;13.40;97.00
13794;DHT22;31160;49.500;7.772;2023-06-14T01:33:19;13.50;97.00
13794;DHT22;31160;49.500;7.772;2023-06-14T01:35:49;13.50;97.00
13794;DHT22;31160;49.500;7.772;2023-06-14T01:38:19;13.40;97.10
13794;DHT22;31160;49.500;7.772;2023-06-14T01:40:47;13.40;97.10
13794;DHT22;31160;49.500;7.772;2023-06-14T01:43:16;13.40;97.20
13794;DHT22;31160;49.500;7.772;2023-06-14T01:45:43;13.30;97.30
13794;DHT22;31160;49.500;7.772;2023-06-14T01:48:12;13.20;97.30
13794;DHT22;31160;49.500;7.772;2023-06-14T01:50:39;13.20;97.50
13794;DHT22;31160;49.500;7.772;2023-06-14T01:53:10;13.20;97.40
13794;DHT22;31160;49.500;7.772;2023-06-14T01:55:37;13.10;97.60
13794;DHT22;31160;49.500;7.772;2023-06-14T01:58:06;13.10;97.80
13794;DHT22;31160;49.500;7.772;2023-06-14T02:00:33;13.10;97.80
13794;DHT22;31160;49.500;7.772;2023-06-14T02:02:59;13.10;97.90
13794;DHT22;31160;49.500;7.772;2023-06-14T02:05:26;13.10;97.90
13794;DHT22;31160;49.500;7.772;2023-06-14T02:07:53;13.10;97.90
13794;DHT22;31160;49.500;7.772;2023-06-14T02:10:20;13.10;97.90
13794;DHT22;31160;49.500;7.772;2023-06-14T02:12:47;13.00;98.00
13794;DHT22;31160;49.500;7.772;2023-06-14T02:15:13;13.10;98.00
13794;DHT22;31160;49.500;7.772;2023-06-14T02:17:44;12.90;98.10
13794;DHT22;31160;49.500;7.772;2023-06-14T02:20:11;12.80;98.50
13794;DHT22;31160;49.500;7.772;2023-06-14T02:22:39;12.80;98.50
13794;DHT22;31160;49.500;7.772;2023-06-14T02:25:07;12.80;98.50
13794;DHT22;31160;49.500;7.772;2023-06-14T02:27:34;12.80;98.50
13794;DHT22;31160;49.500;7.772;2023-06-14T02:30:03;12.80;98.50
13794;DHT22;31160;49.500;7.772;2023-06-14T02:32:32;12.80;98.40
13794;DHT22;31160;49.500;7.772;2023-06-14T02:35:01;12.80;98.40
13794;DHT22;31160;49.500;7.772;2023-06-14T02:37:28;12.70;98.50
13794;DHT22;31160;49.500;7.772;2023-06-14T02:39:56;12.70;98.60
13794;DHT22;31160;49.500;7.772;2023-06-14T02:42:23;12.70;98.60
13794;DHT22;31160;49.500;7.772;2023-06-14T02:44:49;12.60;98.90
13794;DHT22;31160;49.500;7.772;2023-06-14T02:47:18;12.60;99.10
13794;DHT22;31160;49.500;7.772;2023-06-14T02:49:46;12.70;99.10
13794;DHT22;31160;49.500;7.772;2023-06-14T02:52:16;12.60;99.10
13794;DHT22;31160;49.500;7.772;2023-06-14T02:54:42;12.60;99.10
13794;DHT22;31160;49.500;7.772;2023-06-14T02:57:10;12.50;99.30
13794;DHT22;31160;49.500;7.772;2023-06-14T02:59:38;12.50;99.30
13794;DHT22;31160;49.500;7.772;2023-06-14T03:02:05;12.30;99.40
13794;DHT22;31160;49.500;7.772;2023-06-14T03:04:33;12.30;99.60
13794;DHT22;31160;49.500;7.772;2023-06-14T03:07:07;12.30;99.80
13794;DHT22;31160;49.500;7.772;2023-06-14T03:09:39;12.30;99.80
13794;DHT22;31160;49.500;7.772;2023-06-14T03:12:09;12.30;99.70
13794;DHT22;31160;49.500;7.772;2023-06-14T03:14:36;12.20;99.70
13794;DHT22;31160;49.500;7.772;2023-06-14T03:17:03;12.10;99.90
13794;DHT22;31160;49.500;7.772;2023-06-14T03:19:33;12.20;99.90
13794;DHT22;31160;49.500;7.772;2023-06-14T03:22:00;12.20;99.90
13794;DHT22;31160;49.500;7.772;2023-06-14T03:24:29;12.20;99.80
13794;DHT22;31160;49.500;7.772;2023-06-14T03:26:57;12.10;99.90
13794;DHT22;31160;49.500;7.772;2023-06-14T03:29:27;12.20;99.90
13794;DHT22;31160;49.500;7.772;2023-06-14T03:32:01;12.20;99.90
13794;DHT22;31160;49.500;7.772;2023-06-14T03:34:37;12.20;99.80
13794;DHT22;31160;49.500;7.772;2023-06-14T03:37:11;12.20;99.90
13794;DHT22;31160;49.500;7.772;2023-06-14T03:39:38;12.10;99.90
13794;DHT22;31160;49.500;7.772;2023-06-14T03:42:15;12.20;99.90
13794;DHT22;31160;49.500;7.772;2023-06-14T03:44:44;12.10;99.90
13794;DHT22;31160;49.500;7.772;2023-06-14T03:47:11;12.20;99.90
13794;DHT22;31160;49.500;7.772;2023-06-14T03:49:37;12.30;99.90
13794;DHT22;31160;49.500;7.772;2023-06-14T03:52:05;12.30;99.70
13794;DHT22;31160;49.500;7.772;2023-06-14T03:54:33;12.40;99.50
13794;DHT22;31160;49.500;7.772;2023-06-14T03:57:03;12.40;99.50
13794;DHT22;31160;49.500;7.772;2023-06-14T03:59:30;12.40;99.40
13794;DHT22;31160;49.500;7.772;2023-06-14T04:01:57;12.50;99.40
13794;DHT22;31160;49.500;7.772;2023-06-14T04:04:24;12.50;99.40
13794;DHT22;31160;49.500;7.772;2023-06-14T04:06:56;12.50;99.50
13794;DHT22;31160;49.500;7.772;2023-06-14T04:09:24;12.60;99.40
13794;DHT22;31160;49.500;7.772;2023-06-14T04:11:52;12.60;99.40
13794;DHT22;31160;49.500;7.772;2023-06-14T04:14:19;12.60;99.20
13794;DHT22;31160;49.500;7.772;2023-06-14T04:16:47;12.60;99.20
13794;DHT22;31160;49.500;7.772;2023-06-14T04:19:16;12.60;99.20
13794;DHT22;31160;49.500;7.772;2023-06-14T04:21:43;12.60;99.10
13794;DHT22;31160;49.500;7.772;2023-06-14T04:24:09;12.70;99.10
13794;DHT22;31160;49.500;7.772;2023-06-14T04:26:45;12.80;99.10
13794;DHT22;31160;49.500;7.772;2023-06-14T04:29:15;12.80;99.00
13794;DHT22;31160;49.500;7.772;2023-06-14T04:31:46;12.80;99.10
13794;DHT22;31160;49.500;7.772;2023-06-14T04:34:13;12.90;99.20
13794;DHT22;31160;49.500;7.772;2023-06-14T04:36:49;12.90;99.20
13794;DHT22;31160;49.500;7.772;2023-06-14T04:39:16;12.80;99.20
13794;DHT22;31160;49.500;7.772;2023-06-14T04:41:46;12.90;99.20
13794;DHT22;31160;49.500;7.772;2023-06-14T04:44:13;13.00;99.20
13794;DHT22;31160;49.500;7.772;2023-06-14T04:46:46;13.10;99.10
13794;DHT22;31160;49.500;7.772;2023-06-14T04:49:21;13.10;99.00
13794;DHT22;31160;49.500;7.772;2023-06-14T04:51:53;13.20;99.00
13794;DHT22;31160;49.500;7.772;2023-06-14T04:54:25;13.30;98.90
13794;DHT22;31160;49.500;7.772;2023-06-14T04:56:53;13.40;98.90
13794;DHT22;31160;49.500;7.772;2023-06-14T04:59:24;13.40;98.60
13794;DHT22;31160;49.500;7.772;2023-06-14T05:01:51;13.40;98.70
13794;DHT22;31160;49.500;7.772;2023-06-14T05:04:19;13.60;98.70
13794;DHT22;31160;49.500;7.772;2023-06-14T05:06:48;15.00;97.70
13794;DHT22;31160;49.500;7.772;2023-06-14T05:09:15;18.20;92.40
13794;DHT22;31160;49.500;7.772;2023-06-14T05:11:43;21.20;83.90
13794;DHT22;31160;49.500;7.772;2023-06-14T05:14:12;23.50;76.20
13794;DHT22;31160;49.500;7.772;2023-06-14T05:16:39;25.10;70.70
13794;DHT22;31160;49.500;7.772;2023-06-14T05:19:06;26.50;67.40
13794;DHT22;31160;49.500;7.772;2023-06-14T05:21:33;27.20;65.30
13794;DHT22;31160;49.500;7.772;2023-06-14T05:24:07;28.10;63.00
13794;DHT22;31160;49.500;7.772;2023-06-14T05:26:35;28.60;61.60
13794;DHT22;31160;49.500;7.772;2023-06-14T05:29:02;29.10;60.20
13794;DHT22;31160;49.500;7.772;2023-06-14T05:31:30;29.40;59.00
13794;DHT22;31160;49.500;7.772;2023-06-14T05:33:57;30.10;57.20
13794;DHT22;31160;49.500;7.772;2023-06-14T05:36:24;30.40;57.20
13794;DHT22;31160;49.500;7.772;2023-06-14T05:38:51;30.80;56.60
13794;DHT22;31160;49.500;7.772;2023-06-14T05:41:28;31.40;55.60
13794;DHT22;31160;49.500;7.772;2023-06-14T05:43:55;31.20;55.20
13794;DHT22;31160;49.500;7.772;2023-06-14T05:46:23;31.80;54.90
13794;DHT22;31160;49.500;7.772;2023-06-14T05:48:52;31.80;54.90
13794;DHT22;31160;49.500;7.772;2023-06-14T05:51:19;31.00;54.30
13794;DHT22;31160;49.500;7.772;2023-06-14T05:53:47;31.20;55.30
13794;DHT22;31160;49.500;7.772;2023-06-14T05:56:14;31.20;55.00
13794;DHT22;31160;49.500;7.772;2023-06-14T05:58:41;30.10;52.40
13794;DHT22;31160;49.500;7.772;2023-06-14T06:01:08;29.20;54.50
13794;DHT22;31160;49.500;7.772;2023-06-14T06:03:35;26.70;56.10
13794;DHT22;31160;49.500;7.772;2023-06-14T06:06:02;26.20;56.90
13794;DHT22;31160;49.500;7.772;2023-06-14T06:08:29;25.90;57.60
13794;DHT22;31160;49.500;7.772;2023-06-14T06:10:56;24.50;59.30
13794;DHT22;31160;49.500;7.772;2023-06-14T06:13:23;24.20;60.10
13794;DHT22;31160;49.500;7.772;2023-06-14T06:15:50;23.80;60.50
13794;DHT22;31160;49.500;7.772;2023-06-14T06:18:17;23.90;61.70
13794;DHT22;31160;49.500;7.772;2023-06-14T06:20:44;23.40;61.20
13794;DHT22;31160;49.500;7.772;2023-06-14T06:23:11;23.00;63.30
13794;DHT22;31160;49.500;7.772;2023-06-14T06:25:38;22.50;63.80
13794;DHT22;31160;49.500;7.772;2023-06-14T06:28:05;21.80;64.80
13794;DHT22;31160;49.500;7.772;2023-06-14T06:30:32;21.50;65.70
13794;DHT22;31160;49.500;7.772;2023-06-14T06:32:58;21.30;66.50
13794;DHT22;31160;49.500;7.772;2023-06-14T06:35:25;20.90;68.20
13794;DHT22;31160;49.500;7.772;2023-06-14T06:37:52;20.50;68.30
13794;DHT22;31160;49.500;7.772;2023-06-14T06:40:19;20.20;69.30
13794;DHT22;31160;49.500;7.772;2023-06-14T06:42:46;19.90;70.20
13794;DHT22;31160;49.500;7.772;2023-06-14T06:45:14;20.10;70.30
13794;DHT22;31160;49.500;7.772;2023-06-14T06:47:41;20.30;70.00
13794;DHT22;31160;49.500;7.772;2023-06-14T06:50:08;20.80;69.30
13794;DHT22;31160;49.500;7.772;2023-06-14T06:52:35;20.50;69.70
13794;DHT22;31160;49.500;7.772;2023-06-14T06:55:02;20.40;69.90
13794;DHT22;31160;49.500;7.772;2023-06-14T06:57:29;20.60;70.00
13794;DHT22;31160;49.500;7.772;2023-06-14T06:59:57;20.50;69.30
13794;DHT22;31160;49.500;7.772;2023-06-14T07:02:24;20.50;69.70
13794;DHT22;31160;49.500;7.772;2023-06-14T07:04:50;20.40;69.90
13794;DHT22;31160;49.500;7.772;2023-06-14T07:07:18;20.40;70.10
13794;DHT22;31160;49.500;7.772;2023-06-14T07:09:45;20.40;70.30
13794;DHT22;31160;49.500;7.772;2023-06-14T07:12:12;20.60;69.60
13794;DHT22;31160;49.500;7.772;2023-06-14T07:14:39;20.70;70.10
13794;DHT22;31160;49.500;7.772;2023-06-14T07:17:05;20.60;69.60
13794;DHT22;31160;49.500;7.772;2023-06-14T07:19:34;20.60;70.40
13794;DHT22;31160;49.500;7.772;2023-06-14T07:22:01;20.70;70.40
13794;DHT22;31160;49.500;7.772;2023-06-14T07:24:28;20.70;70.10
13794;DHT22;31160;49.500;7.772;2023-06-14T07:26:55;20.50;71.00
13794;DHT22;31160;49.500;7.772;2023-06-14T07:29:22;20.60;71.10
13794;DHT22;31160;49.500;7.772;2023-06-14T07:31:49;20.80;71.10
13794;DHT22;31160;49.500;7.772;2023-06-14T07:34:16;20.90;70.60
13794;DHT22;31160;49.500;7.772;2023-06-14T07:36:43;20.90;70.20
13794;DHT22;31160;49.500;7.772;2023-06-14T07:39:11;20.60;71.20
13794;DHT22;31160;49.500;7.772;2023-06-14T07:41:38;20.70;70.90
13794;DHT22;31160;49.500;7.772;2023-06-14T07:44:05;21.10;69.80
13794;DHT22;31160;49.500;7.772;2023-06-14T07:46:32;20.90;70.70
13794;DHT22;31160;49.500;7.772;2023-06-14T07:49:01;21.20;70.00
13794;DHT22;31160;49.500;7.772;2023-06-14T07:51:28;21.40;69.80
13794;DHT22;31160;49.500;7.772;2023-06-14T07:53:55;21.20;69.70
13794;DHT22;31160;49.500;7.772;2023-06-14T07:56:21;21.40;69.10
13794;DHT22;31160;49.500;7.772;2023-06-14T07:58:49;21.50;68.50
13794;DHT22;31160;49.500;7.772;2023-06-14T08:01:16;21.30;69.00
13794;DHT22;31160;49.500;7.772;2023-06-14T08:03:43;21.50;69.70
13794;DHT22;31160;49.500;7.772;2023-06-14T08:06:10;21.40;67.20
13794;DHT22;31160;49.500;7.772;2023-06-14T08:08:37;21.10;68.50
13794;DHT22;31160;49.500;7.772;2023-06-14T08:11:04;21.10;68.30
13794;DHT22;31160;49.500;7.772;2023-06-14T08:13:31;21.10;68.40
13794;DHT22;31160;49.500;7.772;2023-06-14T08:15:58;20.90;68.90
13794;DHT22;31160;49.500;7.772;2023-06-14T08:18:25;21.10;68.90
13794;DHT22;31160;49.500;7.772;2023-06-14T08:20:51;21.20;67.40
13794;DHT22;31160;49.500;7.772;2023-06-14T08:23:18;21.10;67.90
13794;DHT22;31160;49.500;7.772;2023-06-14T08:25:47;21.10;68.50
13794;DHT22;31160;49.500;7.772;2023-06-14T08:28:15;21.20;69.10
13794;DHT22;31160;49.500;7.772;2023-06-14T08:30:42;21.70;67.40
13794;DHT22;31160;49.500;7.772;2023-06-14T08:33:09;21.60;67.50
13794;DHT22;31160;49.500;7.772;2023-06-14T08:35:43;21.80;67.80
13794;DHT22;31160;49.500;7.772;2023-06-14T08:38:10;21.60;67.20
13794;DHT22;31160;49.500;7.772;2023-06-14T08:40:39;21.40;67.50
13794;DHT22;31160;49.500;7.772;2023-06-14T08:43:08;21.60;67.70
13794;DHT22;31160;49.500;7.772;2023-06-14T08:45:35;21.30;67.40
13794;DHT22;31160;49.500;7.772;2023-06-14T08:48:02;21.20;67.50
13794;DHT22;31160;49.500;7.772;2023-06-14T08:50:32;21.00;66.90
13794;DHT22;31160;49.500;7.772;2023-06-14T08:53:02;21.10;66.50
13794;DHT22;31160;49.500;7.772;2023-06-14T08:55:31;21.20;67.60
13794;DHT22;31160;49.500;7.772;2023-06-14T08:58:03;21.70;67.30
13794;DHT22;31160;49.500;7.772;2023-06-14T09:00:31;21.70;66.30
13794;DHT22;31160;49.500;7.772;2023-06-14T09:03:00;21.60;66.50
13794;DHT22;31160;49.500;7.772;2023-06-14T09:05:28;21.90;66.60
13794;DHT22;31160;49.500;7.772;2023-06-14T09:07:55;22.10;66.10
13794;DHT22;31160;49.500;7.772;2023-06-14T09:10:25;22.20;65.80
13794;DHT22;31160;49.500;7.772;2023-06-14T09:12:55;22.40;65.10
13794;DHT22;31160;49.500;7.772;2023-06-14T09:15:22;22.50;64.70
13794;DHT22;31160;49.500;7.772;2023-06-14T09:17:49;22.30;63.90
13794;DHT22;31160;49.500;7.772;2023-06-14T09:20:16;22.20;64.60
13794;DHT22;31160;49.500;7.772;2023-06-14T09:22:46;22.30;63.70
13794;DHT22;31160;49.500;7.772;2023-06-14T09:25:13;22.20;63.40
13794;DHT22;31160;49.500;7.772;2023-06-14T09:28:02;22.20;63.20
13794;DHT22;31160;49.500;7.772;2023-06-14T09:30:29;22.40;62.80
13794;DHT22;31160;49.500;7.772;2023-06-14T09:32:55;22.70;63.00
13794;DHT22;31160;49.500;7.772;2023-06-14T09:35:26;22.70;61.30
13794;DHT22;31160;49.500;7.772;2023-06-14T09:37:56;22.50;62.00
13794;DHT22;31160;49.500;7.772;2023-06-14T09:40:23;22.40;62.60
13794;DHT22;31160;49.500;7.772;2023-06-14T09:42:51;22.70;60.70
13794;DHT22;31160;49.500;7.772;2023-06-14T09:45:19;22.60;60.60
13794;DHT22;31160;49.500;7.772;2023-06-14T09:47:51;22.30;61.10
13794;DHT22;31160;49.500;7.772;2023-06-14T09:50:32;21.90;61.90
13794;DHT22;31160;49.500;7.772;2023-06-14T09:53:06;22.10;62.20
13794;DHT22;31160;49.500;7.772;2023-06-14T09:55:37;22.20;62.20
13794;DHT22;31160;49.500;7.772;2023-06-14T09:58:07;22.20;63.40
13794;DHT22;31160;49.500;7.772;2023-06-14T10:00:35;22.30;63.30
13794;DHT22;31160;49.500;7.772;2023-06-14T10:03:25;22.10;62.80
13794;DHT22;31160;49.500;7.772;2023-06-14T10:05:54;22.20;63.10
13794;DHT22;31160;49.500;7.772;2023-06-14T10:08:25;22.20;62.70
13794;DHT22;31160;49.500;7.772;2023-06-14T10:10:55;22.30;60.70
13794;DHT22;31160;49.500;7.772;2023-06-14T10:13:22;22.10;61.70
13794;DHT22;31160;49.500;7.772;2023-06-14T10:16:12;22.10;61.20
13794;DHT22;31160;49.500;7.772;2023-06-14T10:18:50;22.10;60.20
13794;DHT22;31160;49.500;7.772;2023-06-14T10:24:05;22.30;60.50
13794;DHT22;31160;49.500;7.772;2023-06-14T10:26:34;22.40;60.30
13794;DHT22;31160;49.500;7.772;2023-06-14T10:29:07;22.40;60.60
13794;DHT22;31160;49.500;7.772;2023-06-14T10:31:46;22.70;59.40
13794;DHT22;31160;49.500;7.772;2023-06-14T10:34:23;22.60;59.50
13794;DHT22;31160;49.500;7.772;2023-06-14T10:37:10;22.70;60.20
13794;DHT22;31160;49.500;7.772;2023-06-14T10:39:44;22.70;61.20
13794;DHT22;31160;49.500;7.772;2023-06-14T10:42:13;22.60;61.10
13794;DHT22;31160;49.500;7.772;2023-06-14T10:44:54;23.00;60.30
13794;DHT22;31160;49.500;7.772;2023-06-14T10:50:06;22.80;59.90
13794;DHT22;31160;49.500;7.772;2023-06-14T10:52:41;22.80;61.30
13794;DHT22;31160;49.500;7.772;2023-06-14T10:55:16;22.70;61.30
13794;DHT22;31160;49.500;7.772;2023-06-14T10:57:53;22.40;61.40
13794;DHT22;31160;49.500;7.772;2023-06-14T11:00:28;22.70;61.40
13794;DHT22;31160;49.500;7.772;2023-06-14T11:03:36;22.90;61.20
13794;DHT22;31160;49.500;7.772;2023-06-14T11:06:14;22.60;60.00
13794;DHT22;31160;49.500;7.772;2023-06-14T11:09:12;22.60;59.00
13794;DHT22;31160;49.500;7.772;2023-06-14T11:11:48;22.90;61.00
13794;DHT22;31160;49.500;7.772;2023-06-14T11:14:15;22.60;60.50
13794;DHT22;31160;49.500;7.772;2023-06-14T11:16:48;22.40;60.10
13794;DHT22;31160;49.500;7.772;2023-06-14T11:19:14;22.70;60.30
13794;DHT22;31160;49.500;7.772;2023-06-14T11:21:47;23.00;59.80
13794;DHT22;31160;49.500;7.772;2023-06-14T11:24:14;23.00;59.60
13794;DHT22;31160;49.500;7.772;2023-06-14T11:26:41;23.20;60.50
13794;DHT22;31160;49.500;7.772;2023-06-14T11:29:08;23.10;60.70
13794;DHT22;31160;49.500;7.772;2023-06-14T11:31:35;23.10;58.70
13794;DHT22;31160;49.500;7.772;2023-06-14T11:34:02;23.10;58.70
13794;DHT22;31160;49.500;7.772;2023-06-14T11:36:33;22.80;59.80
13794;DHT22;31160;49.500;7.772;2023-06-14T11:39:01;22.80;61.20
13794;DHT22;31160;49.500;7.772;2023-06-14T11:41:35;23.00;60.90
13794;DHT22;31160;49.500;7.772;2023-06-14T11:44:02;23.00;60.20
13794;DHT22;31160;49.500;7.772;2023-06-14T11:46:30;23.10;60.00
13794;DHT22;31160;49.500;7.772;2023-06-14T11:48:57;23.00;61.10
13794;DHT22;31160;49.500;7.772;2023-06-14T11:51:25;23.00;61.40
13794;DHT22;31160;49.500;7.772;2023-06-14T11:53:52;23.20;60.80
13794;DHT22;31160;49.500;7.772;2023-06-14T11:56:19;23.50;61.80
13794;DHT22;31160;49.500;7.772;2023-06-14T11:58:46;23.50;60.90
13794;DHT22;31160;49.500;7.772;2023-06-14T12:01:17;23.70;60.60
13794;DHT22;31160;49.500;7.772;2023-06-14T12:03:52;23.60;60.60
13794;DHT22;31160;49.500;7.772;2023-06-14T12:06:29;23.60;60.50
13794;DHT22;31160;49.500;7.772;2023-06-14T12:09:00;23.40;59.10
13794;DHT22;31160;49.500;7.772;2023-06-14T12:11:34;23.50;58.60
13794;DHT22;31160;49.500;7.772;2023-06-14T12:14:03;23.70;59.10
13794;DHT22;31160;49.500;7.772;2023-06-14T12:16:32;23.50;60.90
13794;DHT22;31160;49.500;7.772;2023-06-14T12:19:14;23.20;61.20
13794;DHT22;31160;49.500;7.772;2023-06-14T12:21:41;22.90;61.50
13794;DHT22;31160;49.500;7.772;2023-06-14T12:24:09;22.60;62.40
13794;DHT22;31160;49.500;7.772;2023-06-14T12:26:39;22.90;61.60
13794;DHT22;31160;49.500;7.772;2023-06-14T12:29:07;22.90;60.90
13794;DHT22;31160;49.500;7.772;2023-06-14T12:31:34;23.20;62.60
13794;DHT22;31160;49.500;7.772;2023-06-14T12:34:01;23.50;62.90
13794;DHT22;31160;49.500;7.772;2023-06-14T12:36:28;23.70;60.90
13794;DHT22;31160;49.500;7.772;2023-06-14T12:38:55;23.90;61.20
13794;DHT22;31160;49.500;7.772;2023-06-14T12:41:22;23.80;61.10
13794;DHT22;31160;49.500;7.772;2023-06-14T12:43:49;23.50;60.80
13794;DHT22;31160;49.500;7.772;2023-06-14T12:46:16;23.40;61.50
13794;DHT22;31160;49.500;7.772;2023-06-14T12:48:43;23.60;61.20
13794;DHT22;31160;49.500;7.772;2023-06-14T12:51:10;23.60;60.40
13794;DHT22;31160;49.500;7.772;2023-06-14T12:53:37;23.60;60.00
13794;DHT22;31160;49.500;7.772;2023-06-14T12:56:04;23.40;59.80
13794;DHT22;31160;49.500;7.772;2023-06-14T12:58:30;23.40;58.80
13794;DHT22;31160;49.500;7.772;2023-06-14T13:00:57;23.40;59.80
13794;DHT22;31160;49.500;7.772;2023-06-14T13:03:25;23.30;60.20
13794;DHT22;31160;49.500;7.772;2023-06-14T13:05:52;23.30;61.10
13794;DHT22;31160;49.500;7.772;2023-06-14T13:08:18;23.30;60.30
13794;DHT22;31160;49.500;7.772;2023-06-14T13:10:49;23.30;60.40
13794;DHT22;31160;49.500;7.772;2023-06-14T13:13:16;23.30;61.30
13794;DHT22;31160;49.500;7.772;2023-06-14T13:15:43;23.60;60.60
13794;DHT22;31160;49.500;7.772;2023-06-14T13:18:12;23.60;60.10
13794;DHT22;31160;49.500;7.772;2023-06-14T13:20:42;23.50;59.60
13794;DHT22;31160;49.500;7.772;2023-06-14T13:23:09;23.60;58.90
13794;DHT22;31160;49.500;7.772;2023-06-14T13:25:37;23.60;59.00
13794;DHT22;31160;49.500;7.772;2023-06-14T13:28:05;23.80;59.40
13794;DHT22;31160;49.500;7.772;2023-06-14T13:30:32;23.20;59.00
13794;DHT22;31160;49.500;7.772;2023-06-14T13:33:00;23.00;59.20
13794;DHT22;31160;49.500;7.772;2023-06-14T13:35:27;23.10;59.00
13794;DHT22;31160;49.500;7.772;2023-06-14T13:37:54;23.30;58.90
13794;DHT22;31160;49.500;7.772;2023-06-14T13:40:21;23.50;59.40
13794;DHT22;31160;49.500;7.772;2023-06-14T13:42:48;23.50;59.40
13794;DHT22;31160;49.500;7.772;2023-06-14T13:45:15;23.30;58.10
13794;DHT22;31160;49.500;7.772;2023-06-14T13:47:41;23.40;58.40
13794;DHT22;31160;49.500;7.772;2023-06-14T13:50:09;23.30;58.70
13794;DHT22;31160;49.500;7.772;2023-06-14T13:52:36;23.40;58.90
13794;DHT22;31160;49.500;7.772;2023-06-14T13:55:03;23.40;57.70
13794;DHT22;31160;49.500;7.772;2023-06-14T13:57:30;23.60;58.00
13794;DHT22;31160;49.500;7.772;2023-06-14T13:59:57;23.60;58.20
13794;DHT22;31160;49.500;7.772;2023-06-14T14:02:38;23.80;57.80
13794;DHT22;31160;49.500;7.772;2023-06-14T14:05:06;23.90;57.60
13794;DHT22;31160;49.500;7.772;2023-06-14T14:07:33;24.20;57.80
13794;DHT22;31160;49.500;7.772;2023-06-14T14:10:03;24.50;56.90
13794;DHT22;31160;49.500;7.772;2023-06-14T14:12:30;24.50;57.40
13794;DHT22;31160;49.500;7.772;2023-06-14T14:14:56;24.00;58.30
13794;DHT22;31160;49.500;7.772;2023-06-14T14:17:23;23.90;58.10
13794;DHT22;31160;49.500;7.772;2023-06-14T14:19:50;23.70;57.70
13794;DHT22;31160;49.500;7.772;2023-06-14T14:22:17;23.90;58.30
13794;DHT22;31160;49.500;7.772;2023-06-14T14:24:44;23.90;57.90
13794;DHT22;31160;49.500;7.772;2023-06-14T14:27:11;23.80;57.30
13794;DHT22;31160;49.500;7.772;2023-06-14T14:29:38;23.40;58.90
13794;DHT22;31160;49.500;7.772;2023-06-14T14:32:05;23.40;60.20
13794;DHT22;31160;49.500;7.772;2023-06-14T14:34:32;23.90;59.00
13794;DHT22;31160;49.500;7.772;2023-06-14T14:36:59;24.00;59.00
13794;DHT22;31160;49.500;7.772;2023-06-14T14:39:26;23.80;59.70
13794;DHT22;31160;49.500;7.772;2023-06-14T14:41:53;23.40;59.10
13794;DHT22;31160;49.500;7.772;2023-06-14T14:44:19;23.40;58.60
13794;DHT22;31160;49.500;7.772;2023-06-14T14:46:46;23.40;59.30
13794;DHT22;31160;49.500;7.772;2023-06-14T14:49:13;23.50;60.30
13794;DHT22;31160;49.500;7.772;2023-06-14T14:51:40;23.70;60.00
13794;DHT22;31160;49.500;7.772;2023-06-14T14:54:07;23.60;60.10
13794;DHT22;31160;49.500;7.772;2023-06-14T14:56:34;23.50;60.50
13794;DHT22;31160;49.500;7.772;2023-06-14T14:59:02;23.60;59.80
13794;DHT22;31160;49.500;7.772;2023-06-14T15:01:29;23.70;59.60
13794;DHT22;31160;49.500;7.772;2023-06-14T15:03:56;23.70;59.30
13794;DHT22;31160;49.500;7.772;2023-06-14T15:06:26;23.70;59.60
13794;DHT22;31160;49.500;7.772;2023-06-14T15:08:53;23.80;59.20
13794;DHT22;31160;49.500;7.772;2023-06-14T15:11:20;23.70;59.00
13794;DHT22;31160;49.500;7.772;2023-06-14T15:13:47;23.80;59.00
13794;DHT22;31160;49.500;7.772;2023-06-14T15:16:14;23.70;58.60
13794;DHT22;31160;49.500;7.772;2023-06-14T15:18:41;23.70;59.60
13794;DHT22;31160;49.500;7.772;2023-06-14T15:21:08;23.50;58.60
13794;DHT22;31160;49.500;7.772;2023-06-14T15:23:35;23.40;59.10
13794;DHT22;31160;49.500;7.772;2023-06-14T15:26:01;23.50;59.60
13794;DHT22;31160;49.500;7.772;2023-06-14T15:28:28;23.70;59.00
13794;DHT22;31160;49.500;7.772;2023-06-14T15:30:55;23.80;59.10
13794;DHT22;31160;49.500;7.772;2023-06-14T15:33:23;23.80;59.40
13794;DHT22;31160;49.500;7.772;2023-06-14T15:35:50;23.70;59.60
13794;DHT22;31160;49.500;7.772;2023-06-14T15:38:17;23.90;58.50
13794;DHT22;31160;49.500;7.772;2023-06-14T15:40:44;23.50;58.40
13794;DHT22;31160;49.500;7.772;2023-06-14T15:43:12;23.30;58.70
13794;DHT22;31160;49.500;7.772;2023-06-14T15:45:39;23.10;58.90